Bryantville, Massachusetts
Current Conditions -  °F | °C
As of 9:55 AM on Friday 19 Dec 2014 (Local Time) from KGHG Reporting Station
Overcast Overcast  
Wind Chill: -1°   Ceiling: 2900
Heat Index:   Visibility: 10mi
Dew Point: -3°   Wind: 6mph
Humidity: 70%   Direction: 300°WNW
Pressure: 29.97"   Gusts: 16mph
Location:  42.04°N, 70.84°W
Report Text: KGHG 191455Z AUTO 30005G14KT 10SM OVC029 02/M03 A2997 RMK AO2
Loading
Personal Weather Stations






























Interactive Weather Map New forecast layout! Learn more

10-Day Weather Forecast

Advertisements
Track Severe Weather on mobile